Time;durP1;ratioP1;P1;durP2;ratioP2;P2;SDS_P1;SDS_P2;PMS_P1;PMS_P2;Temp;Humidity;BMP_temperature;BMP_pressure;BME280_temperature;BME280_humidity;BME280_pressure;Samples;Min_cycle;Max_cycle;Signal;HPM_P1;HPM_P2
2021/01/14 00:01:44;;;;;;;6.90;2.10;;;;;;;;;;5026846;28;20025;-50
2021/01/14 00:04:10;;;;;;;4.10;2.60;;;;;;;;;;5029407;28;20670;-50
2021/01/14 00:06:36;;;;;;;7.15;2.30;;;;;;;;;;5030617;28;20025;-50
2021/01/14 00:09:02;;;;;;;7.57;2.05;;;;;;;;;;5030269;28;20469;-52
2021/01/14 00:11:28;;;;;;;4.60;2.35;;;;;;;;;;5029541;28;20036;-50
2021/01/14 00:13:54;;;;;;;3.80;2.00;;;;;;;;;;5025875;28;20025;-50
2021/01/14 00:16:20;;;;;;;3.80;1.92;;;;;;;;;;5030823;28;20024;-50
2021/01/14 00:18:46;;;;;;;3.63;1.98;;;;;;;;;;5030247;28;20041;-46
2021/01/14 00:21:11;;;;;;;8.13;2.05;;;;;;;;;;5029814;28;20045;-51
2021/01/14 00:23:37;;;;;;;3.60;1.73;;;;;;;;;;5015091;28;20072;-47
2021/01/14 00:26:03;;;;;;;6.40;2.20;;;;;;;;;;5030143;28;20033;-47
2021/01/14 00:28:29;;;;;;;6.93;2.22;;;;;;;;;;5029193;28;20040;-48
2021/01/14 00:30:55;;;;;;;6.70;2.25;;;;;;;;;;5030494;28;20033;-48
2021/01/14 00:33:21;;;;;;;5.88;2.25;;;;;;;;;;5032758;28;20075;-46
2021/01/14 00:35:47;;;;;;;6.30;2.38;;;;;;;;;;5039107;28;20497;-46
2021/01/14 00:38:13;;;;;;;4.70;2.20;;;;;;;;;;5027833;28;20528;-47
2021/01/14 00:40:39;;;;;;;4.05;1.80;;;;;;;;;;5029795;28;20088;-47
2021/01/14 00:43:08;;;;;;;6.75;2.30;;;;;;;;;;5029894;28;20104;-48
2021/01/14 00:45:34;;;;;;;6.45;2.08;;;;;;;;;;5029957;28;20026;-47
2021/01/14 00:48:00;;;;;;;5.47;2.13;;;;;;;;;;5029488;28;20032;-49
2021/01/14 00:50:26;;;;;;;5.22;2.22;;;;;;;;;;5028697;28;20033;-46
2021/01/14 00:52:52;;;;;;;6.00;2.47;;;;;;;;;;5029270;28;20033;-51
2021/01/14 00:55:18;;;;;;;4.57;1.80;;;;;;;;;;5029227;28;20706;-47
2021/01/14 00:57:45;;;;;;;5.50;1.83;;;;;;;;;;5029573;28;20034;-47
2021/01/14 01:00:12;;;;;;;2.72;1.65;;;;;;;;;;5029652;28;20030;-48
2021/01/14 01:02:39;;;;;;;4.07;1.50;;;;;;;;;;5029478;28;20566;-46
2021/01/14 01:05:06;;;;;;;7.78;1.98;;;;;;;;;;5029599;28;20136;-51
2021/01/14 01:07:32;;;;;;;4.38;1.50;;;;;;;;;;5028724;28;20672;-48
2021/01/14 01:09:58;;;;;;;3.83;1.65;;;;;;;;;;5025593;28;20037;-47
2021/01/14 01:12:24;;;;;;;4.38;1.50;;;;;;;;;;5029641;28;20726;-47
2021/01/14 01:14:50;;;;;;;1.17;1.08;;;;;;;;;;5029015;28;20509;-49
2021/01/14 01:17:15;;;;;;;2.88;1.63;;;;;;;;;;5029292;28;20496;-47
2021/01/14 01:19:41;;;;;;;3.58;1.20;;;;;;;;;;5028676;28;20087;-47
2021/01/14 01:22:07;;;;;;;1.95;1.30;;;;;;;;;;5027532;28;20025;-48
2021/01/14 01:24:33;;;;;;;2.08;1.20;;;;;;;;;;5029219;28;20018;-47
2021/01/14 01:26:59;;;;;;;2.08;1.33;;;;;;;;;;5029305;28;20468;-51
2021/01/14 01:29:25;;;;;;;3.97;1.63;;;;;;;;;;5028575;28;20359;-52
2021/01/14 01:31:51;;;;;;;2.45;1.30;;;;;;;;;;5028974;28;20076;-48
2021/01/14 01:34:17;;;;;;;1.80;1.15;;;;;;;;;;5038502;28;20029;-50
2021/01/14 01:36:43;;;;;;;1.33;1.17;;;;;;;;;;5027116;28;20033;-49
2021/01/14 01:39:09;;;;;;;1.48;1.10;;;;;;;;;;5009770;28;20030;-48
2021/01/14 01:41:35;;;;;;;2.47;1.20;;;;;;;;;;5025992;28;20399;-49
2021/01/14 01:44:01;;;;;;;1.88;0.98;;;;;;;;;;5027898;28;20385;-50
2021/01/14 01:46:28;;;;;;;1.27;1.00;;;;;;;;;;5028381;28;20025;-48
2021/01/14 01:48:55;;;;;;;2.15;1.35;;;;;;;;;;5027699;28;20405;-49
2021/01/14 01:51:22;;;;;;;1.35;0.90;;;;;;;;;;5027159;28;20029;-48
2021/01/14 01:53:49;;;;;;;1.23;1.00;;;;;;;;;;5009039;28;20656;-49
2021/01/14 01:56:18;;;;;;;1.40;1.02;;;;;;;;;;5024505;28;20068;-50
2021/01/14 01:58:46;;;;;;;2.28;1.02;;;;;;;;;;5028527;28;20067;-46
2021/01/14 02:01:12;;;;;;;1.20;1.10;;;;;;;;;;5023283;28;20080;-49
2021/01/14 02:03:38;;;;;;;2.15;0.88;;;;;;;;;;5008134;28;20030;-47
2021/01/14 02:06:04;;;;;;;1.73;1.10;;;;;;;;;;5008735;28;20053;-49
2021/01/14 02:08:36;;;;;;;1.80;0.80;;;;;;;;;;5020110;28;20017;-46
2021/01/14 02:11:05;;;;;;;1.52;0.90;;;;;;;;;;5027745;28;20135;-48
2021/01/14 02:13:45;;;;;;;1.63;0.90;;;;;;;;;;5024041;28;20030;-52
2021/01/14 02:16:13;;;;;;;1.30;0.82;;;;;;;;;;5016548;28;20404;-49
2021/01/14 02:18:39;;;;;;;1.85;0.90;;;;;;;;;;5027572;28;20389;-48
2021/01/14 02:21:05;;;;;;;0.95;0.85;;;;;;;;;;5027354;28;20029;-47
2021/01/14 02:23:41;;;;;;;1.00;0.90;;;;;;;;;;5027596;28;20079;-48
2021/01/14 02:26:15;;;;;;;0.70;0.68;;;;;;;;;;5027219;28;20091;-46
2021/01/14 02:28:43;;;;;;;1.00;0.90;;;;;;;;;;5027401;28;20030;-48
2021/01/14 02:31:09;;;;;;;1.52;1.02;;;;;;;;;;5027500;28;20056;-47
2021/01/14 02:33:35;;;;;;;1.17;1.08;;;;;;;;;;5031720;28;20350;-46
2021/01/14 02:36:01;;;;;;;1.33;1.02;;;;;;;;;;5047813;28;20048;-51
2021/01/14 02:38:27;;;;;;;1.60;1.10;;;;;;;;;;5044756;28;20385;-49
2021/01/14 02:40:53;;;;;;;1.98;1.25;;;;;;;;;;5027331;28;20107;-49
2021/01/14 02:43:19;;;;;;;1.95;1.10;;;;;;;;;;5019886;28;20021;-49
2021/01/14 02:45:45;;;;;;;1.10;1.00;;;;;;;;;;5027289;28;20029;-51
2021/01/14 02:48:13;;;;;;;1.42;0.95;;;;;;;;;;5027955;28;20105;-46
2021/01/14 02:50:40;;;;;;;1.95;1.05;;;;;;;;;;5026419;28;20468;-49
2021/01/14 02:53:07;;;;;;;1.30;1.10;;;;;;;;;;5027272;28;20033;-49
2021/01/14 02:55:33;;;;;;;2.10;1.00;;;;;;;;;;5026758;28;20031;-49
2021/01/14 02:57:59;;;;;;;1.63;0.95;;;;;;;;;;5026764;28;20492;-46
2021/01/14 03:00:25;;;;;;;2.15;1.17;;;;;;;;;;5027276;28;20515;-52
2021/01/14 03:02:51;;;;;;;2.30;1.10;;;;;;;;;;5027221;28;20025;-49
2021/01/14 03:05:17;;;;;;;1.67;1.23;;;;;;;;;;5027250;28;20073;-53
2021/01/14 03:07:43;;;;;;;1.45;1.00;;;;;;;;;;5027050;28;20076;-46
2021/01/14 03:10:09;;;;;;;2.08;1.58;;;;;;;;;;5027347;28;20029;-47
2021/01/14 03:12:36;;;;;;;4.20;1.75;;;;;;;;;;5020529;28;20034;-48
2021/01/14 03:15:02;;;;;;;2.15;1.30;;;;;;;;;;5007915;28;20037;-47
2021/01/14 03:17:28;;;;;;;1.13;1.02;;;;;;;;;;5026295;28;20037;-47
2021/01/14 03:19:57;;;;;;;1.50;1.17;;;;;;;;;;5026531;28;20034;-50
2021/01/14 03:22:23;;;;;;;1.55;0.93;;;;;;;;;;5027384;28;20075;-46
2021/01/14 03:24:49;;;;;;;2.67;1.10;;;;;;;;;;5026957;28;20038;-47
2021/01/14 03:27:15;;;;;;;1.60;1.10;;;;;;;;;;5026796;28;20079;-46
2021/01/14 03:29:41;;;;;;;1.50;1.05;;;;;;;;;;5021955;28;20022;-52
2021/01/14 03:32:07;;;;;;;1.70;1.25;;;;;;;;;;5024333;28;20420;-47
2021/01/14 03:34:33;;;;;;;2.35;1.50;;;;;;;;;;5038386;28;20461;-48
2021/01/14 03:37:00;;;;;;;1.55;1.27;;;;;;;;;;5027133;28;20033;-47
2021/01/14 03:39:29;;;;;;;3.17;1.30;;;;;;;;;;5030197;28;20091;-47
2021/01/14 03:41:56;;;;;;;3.00;1.27;;;;;;;;;;5030524;28;20445;-47
2021/01/14 03:44:22;;;;;;;2.33;1.20;;;;;;;;;;5030458;28;20033;-48
2021/01/14 03:46:49;;;;;;;1.77;1.02;;;;;;;;;;5030622;28;20025;-47
2021/01/14 03:49:15;;;;;;;1.50;1.00;;;;;;;;;;5030563;28;20029;-48
2021/01/14 03:51:44;;;;;;;0.98;0.90;;;;;;;;;;5030251;28;20064;-51
2021/01/14 03:54:11;;;;;;;1.73;1.20;;;;;;;;;;5030990;28;20029;-50
2021/01/14 03:56:38;;;;;;;1.65;1.23;;;;;;;;;;5030103;28;20028;-46
2021/01/14 03:59:04;;;;;;;1.10;0.90;;;;;;;;;;5030412;28;20037;-48
2021/01/14 04:01:30;;;;;;;4.07;1.27;;;;;;;;;;5029167;28;20454;-49
2021/01/14 04:03:56;;;;;;;2.17;1.30;;;;;;;;;;5030390;28;20028;-47
2021/01/14 04:06:29;;;;;;;1.58;1.20;;;;;;;;;;5030427;28;20029;-47
2021/01/14 04:08:55;;;;;;;3.22;1.80;;;;;;;;;;5030015;28;20026;-50
2021/01/14 04:11:21;;;;;;;3.75;1.80;;;;;;;;;;5030220;28;20431;-47
2021/01/14 04:13:47;;;;;;;2.95;1.90;;;;;;;;;;5030461;28;20769;-51
2021/01/14 04:16:13;;;;;;;4.75;2.30;;;;;;;;;;5029595;28;20418;-46
2021/01/14 04:18:39;;;;;;;2.85;1.90;;;;;;;;;;5030216;28;20030;-48
2021/01/14 04:21:05;;;;;;;3.58;2.15;;;;;;;;;;5029939;28;20362;-52
2021/01/14 04:23:31;;;;;;;5.40;2.40;;;;;;;;;;5029779;28;20672;-49
2021/01/14 04:25:57;;;;;;;5.45;2.25;;;;;;;;;;5030391;28;20489;-47
2021/01/14 04:28:23;;;;;;;4.55;2.67;;;;;;;;;;5029839;28;20022;-49
2021/01/14 04:30:49;;;;;;;3.38;2.47;;;;;;;;;;5020724;28;20079;-48
2021/01/14 04:33:15;;;;;;;4.57;2.42;;;;;;;;;;5030669;28;20029;-47
2021/01/14 04:36:01;;;;;;;4.22;2.72;;;;;;;;;;5029889;28;20111;-49
2021/01/14 04:38:28;;;;;;;4.88;2.50;;;;;;;;;;5029765;28;20037;-46
2021/01/14 04:40:55;;;;;;;4.18;2.63;;;;;;;;;;5029439;28;20421;-46
2021/01/14 04:43:22;;;;;;;4.53;2.97;;;;;;;;;;5030694;28;20500;-54
2021/01/14 04:45:49;;;;;;;5.65;3.00;;;;;;;;;;5029469;28;20440;-48
2021/01/14 04:48:18;;;;;;;6.20;2.78;;;;;;;;;;5029332;28;20174;-51
2021/01/14 04:50:45;;;;;;;5.60;3.35;;;;;;;;;;5028913;28;20112;-47
2021/01/14 04:53:14;;;;;;;5.22;3.13;;;;;;;;;;5029152;28;20052;-49
2021/01/14 04:55:42;;;;;;;5.80;3.30;;;;;;;;;;5029230;28;20048;-51
2021/01/14 04:58:10;;;;;;;5.22;2.88;;;;;;;;;;5029572;28;20026;-50
2021/01/14 05:00:38;;;;;;;5.82;3.53;;;;;;;;;;5017464;28;20472;-48
2021/01/14 05:03:06;;;;;;;8.15;3.05;;;;;;;;;;5023563;28;20021;-47
2021/01/14 05:05:33;;;;;;;6.25;3.08;;;;;;;;;;5016218;28;20038;-49
2021/01/14 05:08:09;;;;;;;9.35;3.38;;;;;;;;;;5019874;28;20040;-49
2021/01/14 05:10:35;;;;;;;5.10;2.55;;;;;;;;;;5028932;28;20590;-50
2021/01/14 05:13:02;;;;;;;4.03;2.97;;;;;;;;;;5028961;28;20026;-47
2021/01/14 05:15:28;;;;;;;6.80;3.28;;;;;;;;;;5029036;28;20030;-48
2021/01/14 05:17:58;;;;;;;7.18;3.25;;;;;;;;;;5028376;28;20100;-48
2021/01/14 05:20:24;;;;;;;7.63;3.25;;;;;;;;;;5028539;28;20033;-47
2021/01/14 05:22:52;;;;;;;6.72;2.90;;;;;;;;;;5028414;28;20136;-47
2021/01/14 05:25:18;;;;;;;5.85;2.80;;;;;;;;;;5029102;28;20048;-46
2021/01/14 05:27:44;;;;;;;5.43;3.30;;;;;;;;;;5029110;28;20026;-48
2021/01/14 05:30:11;;;;;;;5.88;3.53;;;;;;;;;;5028365;28;20036;-46
2021/01/14 05:32:41;;;;;;;6.68;3.22;;;;;;;;;;5028404;28;20029;-48
2021/01/14 05:35:08;;;;;;;6.03;3.88;;;;;;;;;;5021014;28;20069;-51
2021/01/14 05:37:44;;;;;;;8.00;4.20;;;;;;;;;;5028316;28;20033;-48
2021/01/14 05:40:12;;;;;;;7.85;4.68;;;;;;;;;;5028412;28;20076;-49
2021/01/14 05:42:38;;;;;;;6.80;4.75;;;;;;;;;;5028727;28;20525;-50
2021/01/14 05:45:05;;;;;;;7.63;4.57;;;;;;;;;;5027347;28;20026;-50
2021/01/14 05:47:32;;;;;;;10.00;4.32;;;;;;;;;;5028648;28;20086;-51
2021/01/14 05:50:05;;;;;;;11.25;5.57;;;;;;;;;;5028727;28;20594;-51
2021/01/14 05:52:32;;;;;;;9.38;4.93;;;;;;;;;;5028140;28;20425;-50
2021/01/14 05:54:59;;;;;;;9.23;4.65;;;;;;;;;;5028521;28;20141;-48
2021/01/14 05:57:29;;;;;;;5.97;4.25;;;;;;;;;;5028454;28;20371;-47
2021/01/14 05:59:55;;;;;;;7.97;4.50;;;;;;;;;;5027854;28;20566;-49
2021/01/14 06:02:28;;;;;;;7.68;4.47;;;;;;;;;;5026780;28;20029;-50
2021/01/14 06:04:54;;;;;;;8.40;4.95;;;;;;;;;;5028007;28;20025;-47
2021/01/14 06:07:20;;;;;;;10.48;4.72;;;;;;;;;;5027817;28;20496;-48
2021/01/14 06:09:48;;;;;;;7.82;4.75;;;;;;;;;;5028410;28;20158;-47
2021/01/14 06:12:15;;;;;;;6.72;4.43;;;;;;;;;;5028102;28;20048;-48
2021/01/14 06:14:41;;;;;;;7.38;5.13;;;;;;;;;;5017881;28;20045;-49
2021/01/14 06:17:09;;;;;;;7.55;5.20;;;;;;;;;;5027461;28;20572;-50
2021/01/14 06:19:35;;;;;;;10.80;4.78;;;;;;;;;;5027712;28;20078;-47
2021/01/14 06:22:01;;;;;;;7.35;4.78;;;;;;;;;;5027798;28;20041;-48
2021/01/14 06:24:27;;;;;;;7.32;4.50;;;;;;;;;;5028160;28;20355;-48
2021/01/14 06:26:55;;;;;;;7.65;4.90;;;;;;;;;;5027190;28;20032;-48
2021/01/14 06:29:24;;;;;;;7.97;4.97;;;;;;;;;;5028232;28;20469;-52
2021/01/14 06:31:51;;;;;;;7.55;5.07;;;;;;;;;;5027229;28;20044;-51
2021/01/14 06:34:19;;;;;;;7.18;4.20;;;;;;;;;;5034207;28;20041;-49
2021/01/14 06:36:47;;;;;;;6.88;4.88;;;;;;;;;;5027946;28;20120;-48
2021/01/14 06:39:14;;;;;;;9.20;4.35;;;;;;;;;;5020625;28;20033;-50
2021/01/14 06:41:41;;;;;;;6.47;4.30;;;;;;;;;;5027468;28;20084;-49
2021/01/14 06:44:08;;;;;;;6.60;4.13;;;;;;;;;;5023726;28;20036;-49
2021/01/14 06:46:35;;;;;;;7.72;3.78;;;;;;;;;;5026672;28;20084;-48
2021/01/14 06:49:04;;;;;;;9.43;4.15;;;;;;;;;;5025081;28;20030;-48
2021/01/14 06:51:50;;;;;;;8.57;4.28;;;;;;;;;;5014078;28;20145;-46
2021/01/14 06:54:17;;;;;;;7.20;4.45;;;;;;;;;;5026837;28;20056;-48
2021/01/14 06:57:05;;;;;;;9.65;4.22;;;;;;;;;;5019249;28;20112;-51
2021/01/14 06:59:37;;;;;;;22.58;11.57;;;;;;;;;;5031085;28;20036;-48
2021/01/14 07:02:06;;;;;;;10.63;6.20;;;;;;;;;;5023654;28;20112;-46
2021/01/14 07:04:36;;;;;;;8.25;3.75;;;;;;;;;;5024435;28;20029;-46
2021/01/14 07:07:23;;;;;;;7.93;3.97;;;;;;;;;;5037257;28;20036;-47
2021/01/14 07:10:02;;;;;;;5.88;3.65;;;;;;;;;;5026621;28;20087;-48
2021/01/14 07:12:28;;;;;;;5.72;4.15;;;;;;;;;;5019686;28;20025;-49
2021/01/14 07:15:02;;;;;;;8.43;4.65;;;;;;;;;;5031639;28;20079;-47
2021/01/14 07:17:34;;;;;;;9.07;3.95;;;;;;;;;;5029312;28;20047;-50
2021/01/14 07:20:01;;;;;;;8.65;4.43;;;;;;;;;;5031090;28;20544;-52
2021/01/14 07:22:30;;;;;;;7.35;4.05;;;;;;;;;;5025955;28;20477;-50
2021/01/14 07:24:56;;;;;;;7.07;3.90;;;;;;;;;;5023394;28;20086;-48
2021/01/14 07:27:22;;;;;;;6.45;3.80;;;;;;;;;;5030744;28;20040;-46
2021/01/14 07:29:48;;;;;;;9.05;4.50;;;;;;;;;;5024136;28;20022;-52
2021/01/14 07:32:14;;;;;;;10.73;6.18;;;;;;;;;;5024949;28;20503;-50
2021/01/14 07:34:41;;;;;;;10.10;5.90;;;;;;;;;;5045174;28;20029;-47
2021/01/14 07:37:12;;;;;;;22.65;13.02;;;;;;;;;;5027905;28;20092;-48
2021/01/14 07:39:46;;;;;;;7.80;4.70;;;;;;;;;;5023500;28;20086;-52
2021/01/14 07:42:21;;;;;;;8.70;4.35;;;;;;;;;;5021986;28;20044;-48
2021/01/14 07:44:51;;;;;;;6.47;3.78;;;;;;;;;;5030646;28;20026;-48
2021/01/14 07:47:24;;;;;;;9.68;3.45;;;;;;;;;;5023447;28;20079;-49
2021/01/14 07:49:50;;;;;;;8.57;4.75;;;;;;;;;;5024783;28;20044;-47
2021/01/14 07:52:27;;;;;;;8.25;4.00;;;;;;;;;;5033786;28;20045;-47
2021/01/14 07:54:57;;;;;;;9.82;3.58;;;;;;;;;;5022253;28;20037;-48
2021/01/14 07:57:27;;;;;;;5.97;3.35;;;;;;;;;;5015426;28;20095;-47
2021/01/14 07:59:55;;;;;;;6.65;3.50;;;;;;;;;;5024211;28;20037;-51
2021/01/14 08:02:21;;;;;;;6.55;3.60;;;;;;;;;;5026321;28;20124;-48
2021/01/14 08:04:49;;;;;;;8.23;3.70;;;;;;;;;;5027736;28;20029;-47
2021/01/14 08:07:21;;;;;;;8.13;3.55;;;;;;;;;;5032309;28;20021;-51
2021/01/14 08:09:48;;;;;;;8.25;3.45;;;;;;;;;;5029375;28;20072;-49
2021/01/14 08:12:15;;;;;;;9.13;3.30;;;;;;;;;;5024893;28;20034;-49
2021/01/14 08:14:41;;;;;;;4.95;2.95;;;;;;;;;;5029216;28;20033;-50
2021/01/14 08:17:23;;;;;;;5.57;3.13;;;;;;;;;;5024709;28;20038;-50
2021/01/14 08:19:49;;;;;;;9.13;3.08;;;;;;;;;;5027019;28;20041;-48
2021/01/14 08:22:15;;;;;;;7.95;2.72;;;;;;;;;;5028650;28;20087;-49
2021/01/14 08:24:45;;;;;;;6.38;3.00;;;;;;;;;;5026068;28;20087;-49
2021/01/14 08:27:12;;;;;;;9.02;2.95;;;;;;;;;;5014731;28;20111;-50
2021/01/14 08:29:41;;;;;;;8.88;2.22;;;;;;;;;;5026049;28;20025;-49
2021/01/14 08:32:27;;;;;;;8.15;3.17;;;;;;;;;;5018291;28;20029;-51
2021/01/14 08:34:54;;;;;;;5.18;2.80;;;;;;;;;;5019734;28;20030;-49
2021/01/14 08:37:30;;;;;;;9.27;2.83;;;;;;;;;;5023580;28;20030;-49
2021/01/14 08:40:07;;;;;;;6.85;2.90;;;;;;;;;;5021906;28;20029;-47
2021/01/14 08:42:34;;;;;;;6.70;2.28;;;;;;;;;;5021795;28;20108;-47
2021/01/14 08:45:19;;;;;;;6.43;2.45;;;;;;;;;;5013591;28;20030;-49
2021/01/14 08:47:55;;;;;;;6.65;2.20;;;;;;;;;;5021304;28;20029;-51
2021/01/14 08:50:39;;;;;;;7.30;2.20;;;;;;;;;;5024983;28;20026;-46
2021/01/14 08:53:07;;;;;;;6.00;2.47;;;;;;;;;;5017543;28;20455;-48
2021/01/14 08:55:33;;;;;;;7.03;2.40;;;;;;;;;;5022075;28;20033;-50
2021/01/14 08:58:00;;;;;;;5.38;2.20;;;;;;;;;;5025144;28;20037;-48
2021/01/14 09:00:26;;;;;;;5.75;2.38;;;;;;;;;;5025339;28;20041;-51
2021/01/14 09:02:52;;;;;;;4.28;2.70;;;;;;;;;;5024031;28;20038;-49
2021/01/14 09:05:19;;;;;;;4.30;1.80;;;;;;;;;;5021118;28;20152;-52
2021/01/14 09:08:04;;;;;;;6.72;2.95;;;;;;;;;;5023081;28;20069;-48
2021/01/14 09:10:38;;;;;;;8.65;2.42;;;;;;;;;;5022815;28;20033;-48
2021/01/14 09:13:08;;;;;;;5.82;2.30;;;;;;;;;;5028146;28;20042;-48
2021/01/14 09:15:34;;;;;;;5.72;2.08;;;;;;;;;;5026041;28;20432;-51
2021/01/14 09:18:00;;;;;;;7.35;1.90;;;;;;;;;;5025733;28;20029;-51
2021/01/14 09:20:29;;;;;;;5.65;2.53;;;;;;;;;;5027818;28;20038;-47
2021/01/14 09:22:58;;;;;;;5.60;2.55;;;;;;;;;;5023890;28;20037;-48
2021/01/14 09:25:33;;;;;;;4.82;2.20;;;;;;;;;;5027079;28;20033;-51
2021/01/14 09:27:59;;;;;;;6.20;2.97;;;;;;;;;;5023005;28;20112;-51
2021/01/14 09:30:25;;;;;;;4.38;2.58;;;;;;;;;;5027185;28;20136;-52
2021/01/14 09:32:58;;;;;;;8.00;2.40;;;;;;;;;;5027782;28;20469;-50
2021/01/14 09:35:24;;;;;;;4.20;1.58;;;;;;;;;;5037260;28;20553;-52
2021/01/14 09:37:51;;;;;;;3.78;2.03;;;;;;;;;;5028505;28;20493;-47
2021/01/14 09:40:18;;;;;;;4.50;2.50;;;;;;;;;;5027861;28;20042;-47
2021/01/14 09:42:44;;;;;;;4.82;2.47;;;;;;;;;;5026639;28;20045;-50
2021/01/14 09:45:11;;;;;;;2.85;1.88;;;;;;;;;;5027212;28;20037;-48
2021/01/14 09:47:38;;;;;;;7.57;2.65;;;;;;;;;;5024009;28;20036;-53
2021/01/14 09:50:04;;;;;;;5.00;2.45;;;;;;;;;;5025822;28;20029;-47
2021/01/14 09:52:30;;;;;;;3.80;2.60;;;;;;;;;;5025048;28;20595;-50
2021/01/14 09:54:57;;;;;;;7.18;3.35;;;;;;;;;;5026663;28;20041;-49
2021/01/14 09:57:24;;;;;;;7.78;3.08;;;;;;;;;;5024669;28;20468;-54
2021/01/14 09:59:51;;;;;;;5.63;3.83;;;;;;;;;;5024300;28;20796;-49
2021/01/14 10:02:21;;;;;;;7.05;4.07;;;;;;;;;;5026736;28;20033;-48
2021/01/14 10:05:01;;;;;;;6.82;4.07;;;;;;;;;;5023819;28;20029;-50
2021/01/14 10:07:28;;;;;;;8.75;4.20;;;;;;;;;;5017241;28;20044;-51
2021/01/14 10:09:54;;;;;;;6.68;3.55;;;;;;;;;;5024205;28;20028;-50
2021/01/14 10:12:20;;;;;;;5.70;3.63;;;;;;;;;;5023365;28;20029;-48
2021/01/14 10:14:46;;;;;;;6.50;3.97;;;;;;;;;;5022147;28;20038;-48
2021/01/14 10:17:14;;;;;;;9.82;4.38;;;;;;;;;;5023726;28;20044;-49
2021/01/14 10:19:43;;;;;;;7.70;4.13;;;;;;;;;;5025470;28;20124;-50
2021/01/14 10:22:09;;;;;;;8.00;4.65;;;;;;;;;;5023072;28;20034;-49
2021/01/14 10:24:35;;;;;;;8.73;4.63;;;;;;;;;;5020064;28;20484;-48
2021/01/14 10:27:14;;;;;;;9.40;4.65;;;;;;;;;;5022611;28;20029;-49
2021/01/14 10:29:40;;;;;;;8.88;4.95;;;;;;;;;;5020318;28;20152;-49
2021/01/14 10:32:08;;;;;;;9.77;4.63;;;;;;;;;;5024429;28;20449;-51
2021/01/14 10:34:38;;;;;;;9.43;5.45;;;;;;;;;;5028288;28;20035;-48
2021/01/14 10:37:04;;;;;;;11.07;4.90;;;;;;;;;;5023310;28;20033;-51
2021/01/14 10:39:39;;;;;;;8.38;4.55;;;;;;;;;;5024876;28;20591;-47
2021/01/14 10:42:24;;;;;;;9.95;5.22;;;;;;;;;;5022300;28;20046;-50
2021/01/14 10:44:54;;;;;;;7.22;4.75;;;;;;;;;;5025434;28;20021;-48
2021/01/14 10:47:21;;;;;;;9.93;5.40;;;;;;;;;;5023199;28;20033;-52
2021/01/14 10:49:47;;;;;;;7.28;4.35;;;;;;;;;;5024295;28;20057;-50
2021/01/14 10:52:13;;;;;;;11.80;5.72;;;;;;;;;;5023655;28;20624;-47
2021/01/14 10:54:39;;;;;;;26.77;14.57;;;;;;;;;;5024571;28;20563;-51
2021/01/14 10:57:05;;;;;;;12.10;5.95;;;;;;;;;;5020412;28;20026;-54
2021/01/14 10:59:31;;;;;;;10.02;5.13;;;;;;;;;;5017391;28;20041;-52
2021/01/14 11:02:09;;;;;;;9.80;5.82;;;;;;;;;;5020920;28;20026;-49
2021/01/14 11:04:35;;;;;;;12.10;5.63;;;;;;;;;;5019428;28;20037;-48
2021/01/14 11:07:13;;;;;;;13.35;6.70;;;;;;;;;;5013658;28;20040;-53
2021/01/14 11:09:52;;;;;;;9.10;5.45;;;;;;;;;;5014069;28;20102;-51
2021/01/14 11:12:18;;;;;;;10.27;5.82;;;;;;;;;;5020911;28;20124;-49
2021/01/14 11:14:45;;;;;;;10.40;5.57;;;;;;;;;;5023592;28;20036;-53
2021/01/14 11:17:13;;;;;;;11.10;5.97;;;;;;;;;;5028941;28;20033;-52
2021/01/14 11:19:39;;;;;;;10.68;6.18;;;;;;;;;;5024404;28;20034;-53
2021/01/14 11:22:05;;;;;;;9.68;6.20;;;;;;;;;;5020708;28;20095;-52
2021/01/14 11:24:31;;;;;;;9.57;5.55;;;;;;;;;;5025323;28;20017;-48
2021/01/14 11:26:57;;;;;;;8.38;5.25;;;;;;;;;;5023093;28;20025;-48
2021/01/14 11:29:23;;;;;;;8.25;5.15;;;;;;;;;;5021115;28;20022;-49
2021/01/14 11:31:49;;;;;;;11.38;5.57;;;;;;;;;;5025479;28;20037;-51
2021/01/14 11:34:15;;;;;;;10.45;5.47;;;;;;;;;;5022936;28;20502;-47
2021/01/14 11:36:40;;;;;;;8.38;4.60;;;;;;;;;;5018010;28;20026;-49
2021/01/14 11:39:06;;;;;;;8.23;4.50;;;;;;;;;;5020688;28;20042;-52
2021/01/14 11:41:32;;;;;;;8.20;4.47;;;;;;;;;;5024500;28;20042;-55
2021/01/14 11:43:58;;;;;;;9.20;4.50;;;;;;;;;;5025355;28;20099;-49
2021/01/14 11:46:24;;;;;;;10.13;4.57;;;;;;;;;;5026982;28;20033;-50
2021/01/14 11:48:50;;;;;;;9.13;5.07;;;;;;;;;;5016214;28;20107;-48
2021/01/14 11:51:16;;;;;;;9.50;4.97;;;;;;;;;;5026960;28;20049;-48
2021/01/14 11:53:43;;;;;;;6.97;4.57;;;;;;;;;;5027660;28;20026;-50
2021/01/14 11:56:09;;;;;;;8.13;4.63;;;;;;;;;;5023497;28;20034;-50
2021/01/14 11:58:35;;;;;;;12.93;5.45;;;;;;;;;;5026928;28;20040;-48
2021/01/14 12:01:01;;;;;;;10.57;5.00;;;;;;;;;;5027800;28;20040;-48
2021/01/14 12:03:29;;;;;;;7.72;4.68;;;;;;;;;;5028818;28;20108;-55
2021/01/14 12:05:55;;;;;;;8.05;4.45;;;;;;;;;;5027227;28;20045;-47
2021/01/14 12:08:22;;;;;;;11.13;4.85;;;;;;;;;;5028023;28;20505;-51
2021/01/14 12:10:48;;;;;;;9.48;5.47;;;;;;;;;;5023185;28;20022;-48
2021/01/14 12:13:14;;;;;;;6.95;4.30;;;;;;;;;;5024827;28;20111;-50
2021/01/14 12:15:39;;;;;;;7.90;4.95;;;;;;;;;;5029693;28;20033;-48
2021/01/14 12:18:06;;;;;;;59.13;22.27;;;;;;;;;;5024295;28;20045;-47
2021/01/14 12:20:32;;;;;;;10.30;6.60;;;;;;;;;;5029710;28;20033;-51
2021/01/14 12:22:58;;;;;;;9.95;4.85;;;;;;;;;;5029272;28;20022;-52
2021/01/14 12:25:23;;;;;;;10.55;4.90;;;;;;;;;;5027125;28;20025;-51
2021/01/14 12:27:49;;;;;;;7.18;4.70;;;;;;;;;;5019638;28;20246;-48
2021/01/14 12:30:16;;;;;;;11.23;6.95;;;;;;;;;;5024282;28;20040;-48
2021/01/14 12:32:42;;;;;;;12.23;6.05;;;;;;;;;;5028060;28;20547;-47
2021/01/14 12:35:08;;;;;;;11.52;6.40;;;;;;;;;;5024591;28;20018;-47
2021/01/14 12:37:38;;;;;;;8.95;5.07;;;;;;;;;;5026585;28;20045;-47
2021/01/14 12:40:05;;;;;;;10.48;4.43;;;;;;;;;;5028377;28;20027;-50
2021/01/14 12:42:31;;;;;;;6.90;4.32;;;;;;;;;;5014697;28;20041;-47
2021/01/14 12:44:57;;;;;;;14.23;5.38;;;;;;;;;;5027738;28;20044;-47
2021/01/14 12:47:23;;;;;;;7.88;5.13;;;;;;;;;;5026717;28;20021;-50
2021/01/14 12:49:49;;;;;;;8.18;4.68;;;;;;;;;;5025814;28;20059;-50
2021/01/14 12:52:15;;;;;;;8.02;4.60;;;;;;;;;;5026570;28;20762;-53
2021/01/14 12:54:41;;;;;;;8.20;4.50;;;;;;;;;;5029082;28;20022;-47
2021/01/14 12:57:07;;;;;;;10.02;5.50;;;;;;;;;;5030779;28;20087;-51
2021/01/14 12:59:33;;;;;;;8.70;4.70;;;;;;;;;;5028107;28;20040;-52
2021/01/14 13:01:59;;;;;;;14.52;4.82;;;;;;;;;;5023886;28;20037;-49
2021/01/14 13:04:25;;;;;;;11.38;4.78;;;;;;;;;;5027723;28;20018;-50
2021/01/14 13:06:51;;;;;;;9.57;5.28;;;;;;;;;;5012249;28;20068;-50
2021/01/14 13:09:17;;;;;;;9.20;5.18;;;;;;;;;;5025234;28;20029;-49
2021/01/14 13:11:43;;;;;;;8.27;5.20;;;;;;;;;;5024604;28;20061;-47
2021/01/14 13:14:09;;;;;;;9.85;4.63;;;;;;;;;;5027778;28;20026;-52
2021/01/14 13:16:36;;;;;;;11.25;5.90;;;;;;;;;;5030858;28;20026;-50
2021/01/14 13:19:03;;;;;;;9.63;5.70;;;;;;;;;;5015819;28;20061;-52
2021/01/14 13:21:36;;;;;;;11.30;6.00;;;;;;;;;;5016504;28;20053;-49
2021/01/14 13:24:03;;;;;;;9.88;5.30;;;;;;;;;;5015511;28;20116;-49
2021/01/14 13:26:30;;;;;;;10.82;5.90;;;;;;;;;;5028396;28;20137;-49
2021/01/14 13:28:56;;;;;;;10.48;6.28;;;;;;;;;;5021201;28;20065;-52
2021/01/14 13:31:22;;;;;;;9.23;5.55;;;;;;;;;;5020289;28;20107;-51
2021/01/14 13:33:48;;;;;;;10.55;6.25;;;;;;;;;;5022003;28;20034;-50
2021/01/14 13:36:14;;;;;;;10.65;5.95;;;;;;;;;;5033343;28;20026;-49
2021/01/14 13:38:43;;;;;;;11.38;5.72;;;;;;;;;;5027917;28;20549;-50
2021/01/14 13:41:10;;;;;;;10.55;6.57;;;;;;;;;;5020838;28;20076;-49
2021/01/14 13:43:36;;;;;;;11.30;5.78;;;;;;;;;;5028344;28;20040;-50
2021/01/14 13:46:03;;;;;;;10.90;6.05;;;;;;;;;;5027313;28;20377;-52
2021/01/14 13:48:29;;;;;;;11.27;6.22;;;;;;;;;;5026599;28;20087;-53
2021/01/14 13:50:55;;;;;;;11.23;6.63;;;;;;;;;;5024777;28;20704;-52
2021/01/14 13:53:21;;;;;;;10.63;6.22;;;;;;;;;;5026020;28;20071;-49
2021/01/14 13:55:47;;;;;;;10.25;6.38;;;;;;;;;;5026189;28;20693;-49
2021/01/14 13:58:13;;;;;;;11.30;6.25;;;;;;;;;;5022688;28;20087;-49
2021/01/14 14:00:49;;;;;;;12.35;6.88;;;;;;;;;;5022152;28;20061;-46
2021/01/14 14:03:15;;;;;;;11.73;6.63;;;;;;;;;;5019662;28;20109;-52
2021/01/14 14:05:41;;;;;;;13.10;6.20;;;;;;;;;;5026532;28;20053;-47
2021/01/14 14:08:07;;;;;;;14.48;7.00;;;;;;;;;;5025974;28;20370;-47
2021/01/14 14:10:34;;;;;;;24.48;13.13;;;;;;;;;;5027379;28;20032;-49
2021/01/14 14:13:01;;;;;;;12.20;7.30;;;;;;;;;;5028502;28;20029;-50
2021/01/14 14:15:27;;;;;;;12.13;7.53;;;;;;;;;;5033463;28;20044;-48
2021/01/14 14:17:53;;;;;;;12.32;6.65;;;;;;;;;;5028101;28;20029;-48
2021/01/14 14:20:19;;;;;;;10.43;5.97;;;;;;;;;;5031662;28;20034;-49
2021/01/14 14:22:46;;;;;;;12.35;5.75;;;;;;;;;;5020178;28;20084;-48
2021/01/14 14:25:12;;;;;;;15.32;8.07;;;;;;;;;;5024401;28;20029;-47
2021/01/14 14:27:38;;;;;;;8.43;5.28;;;;;;;;;;5025195;28;20018;-49
2021/01/14 14:30:04;;;;;;;12.18;6.28;;;;;;;;;;5026448;28;20524;-51
2021/01/14 14:32:30;;;;;;;11.98;6.72;;;;;;;;;;5024340;28;20651;-52
2021/01/14 14:34:56;;;;;;;12.25;7.05;;;;;;;;;;5027085;28;20068;-47
2021/01/14 14:37:22;;;;;;;20.98;11.27;;;;;;;;;;5028416;28;20124;-49
2021/01/14 14:39:48;;;;;;;12.82;6.88;;;;;;;;;;5026872;28;20033;-50
2021/01/14 14:42:14;;;;;;;23.65;11.60;;;;;;;;;;5022790;28;20048;-49
2021/01/14 14:44:40;;;;;;;15.77;9.57;;;;;;;;;;5023797;28;20034;-50